Time;durP1;ratioP1;P1;durP2;ratioP2;P2;SDS_P1;SDS_P2;PMS_P1;PMS_P2;Temp;Humidity;BMP_temperature;BMP_pressure;BME280_temperature;BME280_humidity;BME280_pressure;Samples;Min_cycle;Max_cycle;Signal;HPM_P1;HPM_P2
2023/10/16 00:01:27;;;;;;;1.02;0.20;;;5.10;99.90;;;;;;4970152;28;20126;-87
2023/10/16 00:03:55;;;;;;;1.35;0.30;;;5.20;99.90;;;;;;4965824;28;20028;-86
2023/10/16 00:06:21;;;;;;;0.60;0.20;;;5.00;99.90;;;;;;4967764;28;20158;-86
2023/10/16 00:08:47;;;;;;;2.28;0.32;;;5.00;99.90;;;;;;4950023;28;20339;-87
2023/10/16 00:11:18;;;;;;;1.05;0.30;;;5.10;99.90;;;;;;4956006;28;20033;-86
2023/10/16 00:13:48;;;;;;;1.10;0.30;;;5.00;99.90;;;;;;4966990;28;20392;-86
2023/10/16 00:16:15;;;;;;;1.20;0.30;;;5.00;99.90;;;;;;4972100;28;20361;-87
2023/10/16 00:18:41;;;;;;;0.75;0.20;;;5.10;99.90;;;;;;4949504;28;20046;-86
2023/10/16 00:21:07;;;;;;;1.25;0.30;;;5.10;99.90;;;;;;4968750;28;20046;-86
2023/10/16 00:23:39;;;;;;;0.82;0.20;;;5.30;99.90;;;;;;4977534;28;20102;-87
2023/10/16 00:26:21;;;;;;;0.82;0.30;;;5.20;99.90;;;;;;4963711;28;20041;-87
2023/10/16 00:29:08;;;;;;;0.68;0.28;;;5.20;99.90;;;;;;4964267;28;20030;-87
2023/10/16 00:31:35;;;;;;;0.73;0.20;;;5.20;99.90;;;;;;4948053;28;20050;-87
2023/10/16 00:34:02;;;;;;;1.55;0.30;;;5.10;99.90;;;;;;4976402;28;20042;-87
2023/10/16 00:36:28;;;;;;;0.95;0.30;;;5.20;99.90;;;;;;4935418;28;20387;-88
2023/10/16 00:38:54;;;;;;;0.70;0.20;;;5.20;99.90;;;;;;4976224;28;20031;-87
2023/10/16 00:41:28;;;;;;;0.70;0.30;;;5.10;99.90;;;;;;4952153;28;20038;-87
2023/10/16 00:43:56;;;;;;;0.82;0.30;;;5.00;99.90;;;;;;4933807;28;20116;-87
2023/10/16 00:46:44;;;;;;;0.73;0.20;;;4.90;99.90;;;;;;4951484;28;20023;-87
2023/10/16 00:49:14;;;;;;;0.90;0.30;;;5.00;99.90;;;;;;4974761;28;20061;-87
2023/10/16 00:51:41;;;;;;;1.33;0.30;;;5.00;99.90;;;;;;4953664;28;20031;-86
2023/10/16 00:54:17;;;;;;;0.60;0.22;;;4.90;99.90;;;;;;4952175;28;20070;-87
2023/10/16 00:56:50;;;;;;;1.10;0.40;;;4.90;99.90;;;;;;4944993;28;20039;-88
2023/10/16 00:59:16;;;;;;;1.13;0.30;;;5.00;99.90;;;;;;4976278;28;20109;-87
2023/10/16 01:01:46;;;;;;;1.23;0.40;;;4.90;99.90;;;;;;4934510;28;20035;-87
2023/10/16 01:04:13;;;;;;;1.17;0.30;;;4.80;99.90;;;;;;4930538;28;20038;-88
2023/10/16 01:06:41;;;;;;;0.85;0.30;;;4.80;99.90;;;;;;4967215;28;20037;-86
2023/10/16 01:09:08;;;;;;;0.85;0.30;;;4.80;99.90;;;;;;4938545;28;20030;-87
2023/10/16 01:11:37;;;;;;;1.10;0.30;;;4.80;99.90;;;;;;4939120;28;20114;-87
2023/10/16 01:14:04;;;;;;;0.98;0.35;;;4.90;99.90;;;;;;4950206;28;20055;-87
2023/10/16 01:16:31;;;;;;;0.93;0.30;;;4.90;99.90;;;;;;4962717;28;20049;-87
2023/10/16 01:19:01;;;;;;;0.85;0.30;;;5.00;99.90;;;;;;4957023;28;20027;-87
2023/10/16 01:21:31;;;;;;;1.90;0.30;;;5.00;99.90;;;;;;4962519;28;20044;-87
2023/10/16 01:24:02;;;;;;;1.47;0.30;;;5.00;99.90;;;;;;4956422;28;20463;-87
2023/10/16 01:26:29;;;;;;;0.85;0.28;;;4.90;99.90;;;;;;4937956;28;20023;-87
2023/10/16 01:28:55;;;;;;;1.45;0.30;;;5.00;99.90;;;;;;4937615;28;20027;-86
2023/10/16 01:31:21;;;;;;;1.23;0.40;;;5.00;99.90;;;;;;4951080;28;20027;-86
2023/10/16 01:33:48;;;;;;;0.63;0.30;;;4.90;99.90;;;;;;4956855;28;20097;-87
2023/10/16 01:36:13;;;;;;;1.75;0.30;;;4.90;99.90;;;;;;4956325;28;20023;-87
2023/10/16 01:38:40;;;;;;;1.48;0.30;;;5.00;99.90;;;;;;4954256;28;20236;-87
2023/10/16 01:41:07;;;;;;;1.48;0.30;;;5.00;99.90;;;;;;4971319;28;20023;-86
2023/10/16 01:43:34;;;;;;;0.82;0.20;;;5.10;99.90;;;;;;4956401;28;20088;-87
2023/10/16 01:46:08;;;;;;;0.80;0.30;;;5.10;99.90;;;;;;4956085;28;20387;-87
2023/10/16 01:48:41;;;;;;;1.02;0.30;;;5.10;99.90;;;;;;4956018;28;20026;-87
2023/10/16 01:51:14;;;;;;;1.40;0.30;;;5.10;99.90;;;;;;4953839;28;20027;-87
2023/10/16 01:53:43;;;;;;;1.83;0.22;;;5.20;99.90;;;;;;4967611;28;20062;-87
2023/10/16 01:56:14;;;;;;;1.38;0.28;;;5.20;99.90;;;;;;4953067;28;20337;-86
2023/10/16 01:58:49;;;;;;;1.25;0.28;;;5.30;99.90;;;;;;4956016;28;22022;-87
2023/10/16 02:01:17;;;;;;;0.88;0.28;;;5.30;99.90;;;;;;4954927;28;20063;-87
2023/10/16 02:03:45;;;;;;;0.73;0.20;;;5.30;99.90;;;;;;4954057;28;20045;-87
2023/10/16 02:06:12;;;;;;;0.80;0.30;;;5.30;99.90;;;;;;4952000;28;20027;-88
2023/10/16 02:08:39;;;;;;;1.40;0.30;;;5.30;99.90;;;;;;4936438;28;20118;-87
2023/10/16 02:11:06;;;;;;;1.25;0.30;;;5.30;99.90;;;;;;4937586;28;20400;-86
2023/10/16 02:13:35;;;;;;;1.15;0.30;;;5.30;99.90;;;;;;4969264;28;20066;-88
2023/10/16 02:16:10;;;;;;;0.75;0.30;;;5.20;99.90;;;;;;4955344;28;20130;-88
2023/10/16 02:18:40;;;;;;;2.00;0.30;;;5.00;99.90;;;;;;4966948;28;20042;-87
2023/10/16 02:21:11;;;;;;;1.90;0.30;;;5.20;99.90;;;;;;4962122;28;20043;-87
2023/10/16 02:23:45;;;;;;;2.33;0.30;;;5.20;99.90;;;;;;4954991;28;20058;-86
2023/10/16 02:26:18;;;;;;;0.82;0.30;;;5.20;99.90;;;;;;4936475;28;20023;-88
2023/10/16 02:28:46;;;;;;;0.82;0.22;;;5.00;99.90;;;;;;4938145;28;20058;-87
2023/10/16 02:31:19;;;;;;;1.23;0.30;;;5.00;99.90;;;;;;4955518;28;20035;-86
2023/10/16 02:33:55;;;;;;;1.23;0.30;;;5.00;99.90;;;;;;4938444;28;20078;-87
2023/10/16 02:36:22;;;;;;;1.45;0.30;;;5.00;99.90;;;;;;4948602;28;20043;-86
2023/10/16 02:38:48;;;;;;;1.48;0.30;;;4.90;99.90;;;;;;4933977;28;20050;-87
2023/10/16 02:41:19;;;;;;;1.63;0.60;;;4.80;99.90;;;;;;4969750;28;20463;-88
2023/10/16 02:43:48;;;;;;;1.10;0.30;;;4.90;99.90;;;;;;4953151;28;20041;-86
2023/10/16 02:46:18;;;;;;;1.55;0.32;;;4.90;99.90;;;;;;4937157;28;20026;-85
2023/10/16 02:48:44;;;;;;;0.90;0.30;;;4.80;99.90;;;;;;4961268;28;20034;-88
2023/10/16 02:51:16;;;;;;;1.00;0.30;;;4.70;99.90;;;;;;4966164;28;20039;-86
2023/10/16 02:53:42;;;;;;;1.38;0.28;;;4.80;99.90;;;;;;4952887;28;20472;-86
2023/10/16 02:56:08;;;;;;;1.38;0.30;;;4.70;99.90;;;;;;4952577;28;20097;-89
2023/10/16 02:59:09;;;;;;;1.23;0.30;;;4.80;99.90;;;;;;4934503;28;20077;-88
2023/10/16 03:01:28;;;;;;;1.00;0.20;;;5.00;99.90;;;;;;4968036;28;20054;-87
2023/10/16 03:03:53;;;;;;;0.98;0.30;;;5.10;99.90;;;;;;4971792;28;20066;-86
2023/10/16 03:06:19;;;;;;;0.82;0.30;;;5.10;99.90;;;;;;4951267;28;20425;-87
2023/10/16 03:08:48;;;;;;;1.45;0.63;;;5.00;99.90;;;;;;4954117;28;20031;-86
2023/10/16 03:11:15;;;;;;;1.27;0.30;;;4.90;99.90;;;;;;4952673;28;20538;-88
2023/10/16 03:13:40;;;;;;;0.90;0.30;;;4.90;99.90;;;;;;4936730;28;20506;-86
2023/10/16 03:16:18;;;;;;;0.95;0.30;;;5.10;99.90;;;;;;4973837;28;20114;-87
2023/10/16 03:18:47;;;;;;;0.68;0.30;;;5.10;99.90;;;;;;4933135;28;20404;-86
2023/10/16 03:23:47;;;;;;;1.25;0.30;;;4.70;99.90;;;;;;4953848;28;20770;-88
2023/10/16 03:26:33;;;;;;;0.90;0.30;;;4.70;99.90;;;;;;4959477;28;20026;-86
2023/10/16 03:29:01;;;;;;;0.88;0.30;;;4.90;99.90;;;;;;4948036;28;20024;-87
2023/10/16 03:31:28;;;;;;;1.50;0.30;;;4.90;99.90;;;;;;4952769;28;20033;-86
2023/10/16 03:33:54;;;;;;;1.35;0.30;;;4.90;99.90;;;;;;4964368;28;20106;-87
2023/10/16 03:36:21;;;;;;;2.03;0.22;;;4.90;99.90;;;;;;4951772;28;20041;-86
2023/10/16 03:38:49;;;;;;;1.55;0.40;;;5.00;99.90;;;;;;4951256;28;20503;-86
2023/10/16 03:43:47;;;;;;;1.40;0.30;;;5.30;99.90;;;;;;4952633;28;20081;-86
2023/10/16 03:46:13;;;;;;;1.08;0.20;;;5.30;99.90;;;;;;4966212;28;20023;-88
2023/10/16 03:48:39;;;;;;;1.05;0.30;;;5.30;99.90;;;;;;4963369;28;20084;-85
2023/10/16 03:51:08;;;;;;;2.58;0.40;;;5.30;99.90;;;;;;4949456;28;20027;-86
2023/10/16 03:53:35;;;;;;;0.77;0.20;;;5.30;99.90;;;;;;4950841;28;20267;-86
2023/10/16 03:56:02;;;;;;;1.20;0.30;;;5.30;99.90;;;;;;4948732;28;20572;-87
2023/10/16 03:58:30;;;;;;;1.20;0.20;;;5.50;99.90;;;;;;4947890;28;20089;-85
2023/10/16 04:00:58;;;;;;;1.63;0.30;;;5.60;99.90;;;;;;4966355;28;20416;-86
2023/10/16 04:03:26;;;;;;;0.77;0.25;;;5.70;99.90;;;;;;4972650;28;20035;-87
2023/10/16 04:05:53;;;;;;;1.75;0.32;;;5.80;99.90;;;;;;4949533;28;20078;-87
2023/10/16 04:08:23;;;;;;;0.98;0.30;;;5.90;99.90;;;;;;4934201;28;20475;-85
2023/10/16 04:10:53;;;;;;;1.08;0.40;;;5.70;99.90;;;;;;4935249;28;20114;-86
2023/10/16 04:13:19;;;;;;;1.55;0.55;;;5.80;99.90;;;;;;4933889;28;20027;-84
2023/10/16 04:20:55;;;;;;;1.05;0.30;;;5.90;99.90;;;;;;4965814;28;22111;-87
2023/10/16 04:23:37;;;;;;;1.60;0.22;;;6.00;99.90;;;;;;4973560;28;20038;-87
2023/10/16 04:31:44;;;;;;;1.67;0.22;;;5.90;99.90;;;;;;4966907;28;20038;-89
2023/10/16 04:50:30;;;;;;;0.80;0.25;;;5.80;99.90;;;;;;4953370;28;20035;-89
2023/10/16 05:11:33;;;;;;;1.15;0.30;;;6.00;99.90;;;;;;4964746;28;20038;-88
2023/10/16 05:22:03;;;;;;;1.20;0.30;;;5.90;99.90;;;;;;4952081;28;20054;-87
2023/10/16 06:14:14;;;;;;;1.23;0.30;;;6.30;99.90;;;;;;4951990;28;20030;-88
2023/10/16 06:16:53;;;;;;;1.48;0.40;;;6.40;99.90;;;;;;4954124;28;20049;-88
2023/10/16 06:19:22;;;;;;;0.90;0.28;;;6.40;99.90;;;;;;4935401;28;20388;-89
2023/10/16 06:22:06;;;;;;;3.30;0.30;;;6.50;99.90;;;;;;4970372;28;20066;-87
2023/10/16 06:24:44;;;;;;;2.08;0.65;;;6.60;99.90;;;;;;4961493;28;20421;-88
2023/10/16 06:27:11;;;;;;;1.88;0.40;;;6.60;99.90;;;;;;4950419;28;20396;-88
2023/10/16 06:29:53;;;;;;;1.55;0.40;;;6.60;99.90;;;;;;4936942;28;20039;-88
2023/10/16 06:32:26;;;;;;;2.78;0.40;;;6.70;99.90;;;;;;4939388;28;20035;-87
2023/10/16 06:35:07;;;;;;;3.22;0.40;;;6.70;99.90;;;;;;4963574;28;20063;-88
2023/10/16 06:37:38;;;;;;;3.05;0.43;;;6.70;99.90;;;;;;4959367;28;20046;-87
2023/10/16 06:40:46;;;;;;;1.13;0.30;;;6.80;99.90;;;;;;4952444;28;20155;-88
2023/10/16 06:43:09;;;;;;;1.27;0.30;;;6.80;99.90;;;;;;4951242;28;20050;-88
2023/10/16 06:45:42;;;;;;;1.98;0.30;;;6.70;99.90;;;;;;4935751;28;20023;-87
2023/10/16 06:48:09;;;;;;;1.55;0.30;;;6.80;99.90;;;;;;4952537;28;20605;-86
2023/10/16 06:50:42;;;;;;;3.08;0.30;;;6.80;99.90;;;;;;4968479;28;20018;-90
2023/10/16 06:53:08;;;;;;;1.42;0.40;;;6.90;99.90;;;;;;4936916;28;20030;-88
2023/10/16 06:55:34;;;;;;;1.20;0.30;;;7.00;99.90;;;;;;4951910;28;20090;-88
2023/10/16 06:57:59;;;;;;;1.63;0.40;;;7.00;99.90;;;;;;4953451;28;20468;-88
2023/10/16 07:00:32;;;;;;;2.53;0.70;;;7.10;99.90;;;;;;4956492;28;20070;-88
2023/10/16 07:03:01;;;;;;;2.13;0.50;;;7.20;99.90;;;;;;4948334;28;20427;-88
2023/10/16 07:05:43;;;;;;;2.75;0.60;;;7.20;99.90;;;;;;4933060;28;20086;-88
2023/10/16 07:08:19;;;;;;;2.22;0.50;;;7.20;99.90;;;;;;4978435;28;20038;-88
2023/10/16 07:10:49;;;;;;;2.63;0.77;;;7.30;99.90;;;;;;4951338;28;20122;-89
2023/10/16 07:13:28;;;;;;;3.35;0.70;;;7.30;99.90;;;;;;4932594;28;20468;-88
2023/10/16 07:16:02;;;;;;;3.55;0.93;;;7.30;99.90;;;;;;4950417;28;20042;-88
2023/10/16 07:18:29;;;;;;;3.63;1.05;;;7.40;99.90;;;;;;4934746;28;20039;-88
2023/10/16 07:20:59;;;;;;;2.55;0.70;;;7.40;99.90;;;;;;4963228;28;20043;-88
2023/10/16 07:23:29;;;;;;;3.65;1.00;;;7.50;99.90;;;;;;4959562;28;20058;-89
2023/10/16 07:25:56;;;;;;;2.25;0.60;;;7.50;99.90;;;;;;4966464;28;20379;-88
2023/10/16 07:28:22;;;;;;;2.67;0.70;;;7.70;99.90;;;;;;4950198;28;20085;-88
2023/10/16 07:30:49;;;;;;;2.22;0.50;;;7.80;99.90;;;;;;4954011;28;20022;-88
2023/10/16 07:33:14;;;;;;;2.17;0.40;;;7.80;99.90;;;;;;4933459;28;20041;-88
2023/10/16 07:35:44;;;;;;;3.17;0.73;;;7.90;99.90;;;;;;4932797;28;20034;-89
2023/10/16 07:38:19;;;;;;;;;;;8.00;99.90;;;;;;4977310;28;20476;-88
2023/10/16 07:40:47;;;;;;;5.75;0.85;;;8.00;99.90;;;;;;4952638;28;20290;-88
2023/10/16 07:43:13;;;;;;;1.42;0.50;;;8.10;99.90;;;;;;4951161;28;20026;-88
2023/10/16 07:45:44;;;;;;;3.33;0.80;;;8.10;99.90;;;;;;4953810;28;20043;-89
2023/10/16 07:48:23;;;;;;;2.20;0.63;;;8.20;99.90;;;;;;4952768;28;20035;-89
2023/10/16 07:50:50;;;;;;;3.17;0.80;;;8.30;99.90;;;;;;4950716;28;20035;-88
2023/10/16 07:53:19;;;;;;;2.05;0.50;;;8.30;99.90;;;;;;4933996;28;20023;-89
2023/10/16 07:55:52;;;;;;;4.07;0.80;;;8.30;99.90;;;;;;4932341;28;20058;-87
2023/10/16 07:58:23;;;;;;;2.42;0.80;;;8.30;99.90;;;;;;4953166;28;20555;-87
2023/10/16 08:01:16;;;;;;;3.10;0.80;;;8.30;99.90;;;;;;4958249;28;20022;-87
2023/10/16 08:03:45;;;;;;;4.00;0.90;;;8.30;99.90;;;;;;4952010;28;20062;-87
2023/10/16 08:06:17;;;;;;;1.38;0.60;;;8.40;99.90;;;;;;4951843;28;20562;-88
2023/10/16 08:08:48;;;;;;;3.08;0.88;;;8.60;99.90;;;;;;4933596;28;20027;-88
2023/10/16 08:11:20;;;;;;;2.90;0.90;;;8.60;99.90;;;;;;4966138;28;20050;-87
2023/10/16 08:13:49;;;;;;;5.63;1.00;;;8.60;99.90;;;;;;4954119;28;20031;-88
2023/10/16 08:16:18;;;;;;;2.00;0.70;;;8.80;99.90;;;;;;4964317;28;20038;-88
2023/10/16 08:18:48;;;;;;;4.30;0.85;;;8.90;99.90;;;;;;4950036;28;20035;-87
2023/10/16 08:21:39;;;;;;;4.78;1.27;;;8.90;99.90;;;;;;4965056;28;20476;-88
2023/10/16 08:24:05;;;;;;;4.63;0.90;;;8.90;99.90;;;;;;4954355;28;20101;-88
2023/10/16 08:26:42;;;;;;;3.53;1.20;;;9.10;99.90;;;;;;4949636;28;20042;-88
2023/10/16 08:29:11;;;;;;;6.03;1.00;;;9.30;99.90;;;;;;4967955;28;20093;-88
2023/10/16 08:31:41;;;;;;;4.65;1.15;;;9.30;99.90;;;;;;4953208;28;20066;-88
2023/10/16 08:34:11;;;;;;;3.33;1.00;;;9.40;99.90;;;;;;4974077;28;20121;-89
2023/10/16 08:36:37;;;;;;;3.50;0.73;;;9.50;99.90;;;;;;4933394;28;20125;-88
2023/10/16 08:39:09;;;;;;;4.90;1.40;;;9.70;99.90;;;;;;4952745;28;20515;-89
2023/10/16 08:42:18;;;;;;;5.07;0.93;;;9.80;99.90;;;;;;4953329;28;20125;-87
2023/10/16 08:44:31;;;;;;;4.43;1.17;;;9.80;99.90;;;;;;4947097;28;20046;-88
2023/10/16 08:49:25;;;;;;;4.18;0.90;;;10.00;99.90;;;;;;4972606;28;20057;-88
2023/10/16 08:51:54;;;;;;;5.65;1.38;;;10.00;99.90;;;;;;4953247;28;20085;-88
2023/10/16 08:57:07;;;;;;;3.83;1.17;;;10.10;99.90;;;;;;4953271;28;20031;-88
2023/10/16 08:59:36;;;;;;;4.00;0.70;;;10.10;99.90;;;;;;4949859;28;20066;-88
2023/10/16 09:02:07;;;;;;;4.22;0.82;;;10.30;99.90;;;;;;4951933;28;20391;-88
2023/10/16 09:04:34;;;;;;;3.30;0.70;;;10.50;99.90;;;;;;4965133;28;20047;-88
2023/10/16 09:07:00;;;;;;;4.55;1.15;;;10.60;99.90;;;;;;4933705;28;20030;-88
2023/10/16 09:09:26;;;;;;;4.40;1.33;;;10.50;99.90;;;;;;4952306;28;20476;-88
2023/10/16 09:12:01;;;;;;;4.63;1.35;;;10.60;99.90;;;;;;4950719;28;20034;-88
2023/10/16 09:14:27;;;;;;;3.97;1.10;;;10.60;99.90;;;;;;4950621;28;20037;-88
2023/10/16 09:16:55;;;;;;;4.60;1.30;;;10.50;99.90;;;;;;4964630;28;20027;-88
2023/10/16 09:19:34;;;;;;;6.18;2.08;;;10.60;99.90;;;;;;4953257;28;20125;-89
2023/10/16 09:22:09;;;;;;;3.47;1.20;;;10.60;99.90;;;;;;4932569;28;20401;-89
2023/10/16 09:24:35;;;;;;;5.47;1.15;;;10.70;99.90;;;;;;4965068;28;20030;-89
2023/10/16 09:27:16;;;;;;;4.63;1.10;;;10.70;99.90;;;;;;4966340;28;20070;-87
2023/10/16 09:29:55;;;;;;;7.13;1.27;;;10.80;99.90;;;;;;4964547;28;20034;-88
2023/10/16 09:32:28;;;;;;;4.10;0.88;;;10.70;99.90;;;;;;4962209;28;20089;-88
2023/10/16 09:35:06;;;;;;;2.15;0.70;;;10.90;99.90;;;;;;4935932;28;20026;-88
2023/10/16 09:37:36;;;;;;;4.25;1.23;;;10.90;99.90;;;;;;4936859;28;20042;-88
2023/10/16 09:40:19;;;;;;;3.17;0.95;;;11.00;99.90;;;;;;4960735;28;20035;-87
2023/10/16 09:43:05;;;;;;;4.38;0.70;;;10.90;99.90;;;;;;4958846;28;20440;-88
2023/10/16 09:45:35;;;;;;;3.35;0.90;;;10.90;99.90;;;;;;4969304;28;20039;-89
2023/10/16 09:48:09;;;;;;;3.05;0.77;;;11.00;99.90;;;;;;4970130;28;20045;-89
2023/10/16 09:50:38;;;;;;;3.08;0.75;;;11.10;99.90;;;;;;4968450;28;20118;-88
2023/10/16 09:53:08;;;;;;;2.78;0.95;;;11.30;99.90;;;;;;4975991;28;20627;-88
2023/10/16 09:55:44;;;;;;;1.95;0.65;;;11.20;99.90;;;;;;4955571;28;20105;-88
2023/10/16 09:58:11;;;;;;;2.75;0.52;;;11.30;99.90;;;;;;4955671;28;20038;-88
2023/10/16 10:00:46;;;;;;;3.25;0.40;;;11.30;99.90;;;;;;4948085;28;20031;-88
2023/10/16 10:03:14;;;;;;;2.20;0.30;;;11.30;99.90;;;;;;4953255;28;20467;-88
2023/10/16 10:06:08;;;;;;;1.90;0.40;;;11.50;99.90;;;;;;4939188;28;20085;-88
2023/10/16 10:11:53;;;;;;;0.77;0.20;;;11.80;99.90;;;;;;4946059;28;20039;-88
2023/10/16 10:16:57;;;;;;;0.80;0.20;;;12.20;99.90;;;;;;4950333;28;20240;-89
2023/10/16 10:19:35;;;;;;;1.05;0.20;;;12.30;99.90;;;;;;4947960;28;20114;-88
2023/10/16 10:22:18;;;;;;;1.83;0.20;;;12.10;99.90;;;;;;4937113;28;20201;-88
2023/10/16 10:24:53;;;;;;;0.55;0.10;;;12.20;99.90;;;;;;4938167;28;20039;-88
2023/10/16 10:27:19;;;;;;;1.45;0.20;;;12.30;99.90;;;;;;4951534;28;20082;-88
2023/10/16 10:29:48;;;;;;;1.80;0.20;;;12.20;99.90;;;;;;4953859;28;20031;-89
2023/10/16 10:32:14;;;;;;;0.90;0.20;;;12.30;99.90;;;;;;4935618;28;20035;-87
2023/10/16 10:34:42;;;;;;;0.90;0.10;;;12.30;99.90;;;;;;4937938;28;20031;-89
2023/10/16 10:37:45;;;;;;;1.50;0.20;;;12.40;99.90;;;;;;4934027;28;20035;-90
2023/10/16 10:40:25;;;;;;;2.22;0.20;;;12.20;99.90;;;;;;4961937;28;20476;-88
2023/10/16 10:42:54;;;;;;;2.67;0.30;;;12.20;99.90;;;;;;4954131;28;20027;-89
2023/10/16 10:45:39;;;;;;;1.27;0.30;;;12.20;99.90;;;;;;4934809;28;20073;-89
2023/10/16 10:48:09;;;;;;;1.63;0.30;;;12.10;99.90;;;;;;4936419;28;20291;-88
2023/10/16 10:50:40;;;;;;;1.10;0.20;;;12.10;99.90;;;;;;4959634;28;20428;-89
2023/10/16 10:53:15;;;;;;;2.70;0.30;;;12.30;99.90;;;;;;4974180;28;20126;-88
2023/10/16 10:55:57;;;;;;;1.33;0.20;;;12.30;99.90;;;;;;4940270;28;20039;-88
2023/10/16 10:58:32;;;;;;;0.70;0.20;;;12.20;99.90;;;;;;4957717;28;20039;-90
2023/10/16 11:03:45;;;;;;;0.90;0.13;;;12.30;99.90;;;;;;4953623;28;20046;-89
2023/10/16 11:06:18;;;;;;;1.17;0.10;;;12.50;99.90;;;;;;4976980;28;20054;-87
2023/10/16 11:08:49;;;;;;;0.90;0.10;;;12.60;99.90;;;;;;4950001;28;20031;-89
2023/10/16 11:11:15;;;;;;;1.38;0.30;;;12.70;99.90;;;;;;4969190;28;20027;-89
2023/10/16 11:13:46;;;;;;;1.00;0.17;;;12.50;99.90;;;;;;4954817;28;20027;-89
2023/10/16 11:16:11;;;;;;;1.23;0.10;;;12.40;99.90;;;;;;4953426;28;20400;-88
2023/10/16 11:18:37;;;;;;;1.42;0.10;;;12.70;99.90;;;;;;4935236;28;20133;-88
2023/10/16 11:21:07;;;;;;;0.17;0.00;;;12.90;99.90;;;;;;4950940;28;20250;-89
2023/10/16 11:27:33;;;;;;;0.15;0.00;;;13.20;99.90;;;;;;5293929;23;20130;-91
2023/10/16 11:30:00;;;;;;;0.20;0.00;;;13.20;99.90;;;;;;4938446;29;20027;-90
2023/10/16 11:32:26;;;;;;;0.65;0.00;;;13.10;99.90;;;;;;4930092;29;20475;-91
2023/10/16 11:34:59;;;;;;;1.80;0.10;;;12.90;99.90;;;;;;4931063;29;20027;-89
2023/10/16 11:37:25;;;;;;;0.50;0.10;;;12.80;99.90;;;;;;4933295;29;20046;-91
2023/10/16 11:39:54;;;;;;;1.30;0.10;;;12.60;99.90;;;;;;4914634;29;20059;-92
2023/10/16 11:42:20;;;;;;;1.10;0.10;;;12.50;99.90;;;;;;4925313;29;20039;-91
2023/10/16 11:44:51;;;;;;;0.10;0.00;;;12.60;99.90;;;;;;4927387;29;20020;-91
2023/10/16 11:47:18;;;;;;;0.40;0.00;;;12.70;99.90;;;;;;4927977;29;20610;-91
2023/10/16 11:49:53;;;;;;;0.98;0.10;;;12.60;99.90;;;;;;4929221;29;20051;-90
2023/10/16 11:52:21;;;;;;;0.20;0.00;;;12.60;99.90;;;;;;4929146;29;20143;-89
2023/10/16 11:54:48;;;;;;;1.45;0.10;;;12.60;99.90;;;;;;4931036;29;20058;-90
2023/10/16 11:57:14;;;;;;;1.58;0.10;;;12.70;99.90;;;;;;4927090;29;20035;-90
2023/10/16 11:59:40;;;;;;;1.58;0.10;;;12.60;99.90;;;;;;4905024;29;20497;-90
2023/10/16 12:02:12;;;;;;;1.05;0.10;;;12.60;99.90;;;;;;4912212;29;20127;-90
2023/10/16 12:04:40;;;;;;;1.33;0.10;;;12.70;99.90;;;;;;4923808;29;20052;-90
2023/10/16 12:07:07;;;;;;;0.95;0.00;;;12.40;99.90;;;;;;4928983;29;20034;-89
2023/10/16 12:09:37;;;;;;;0.45;0.00;;;12.50;99.90;;;;;;4913268;29;20078;-89
2023/10/16 12:12:06;;;;;;;0.50;0.00;;;12.80;99.90;;;;;;4909587;29;20028;-88
2023/10/16 12:14:38;;;;;;;0.32;0.00;;;12.90;99.90;;;;;;4927374;29;20052;-89
2023/10/16 12:17:11;;;;;;;0.28;0.00;;;13.10;99.90;;;;;;4925117;29;20115;-90
2023/10/16 12:19:37;;;;;;;0.28;0.00;;;13.10;99.90;;;;;;4911466;29;20047;-89
2023/10/16 12:22:03;;;;;;;0.77;0.10;;;13.10;99.90;;;;;;4914874;29;20386;-89
2023/10/16 12:24:29;;;;;;;2.00;0.30;;;13.20;99.90;;;;;;4911763;29;20043;-89
2023/10/16 12:26:55;;;;;;;1.80;0.40;;;12.90;99.90;;;;;;4933221;29;20027;-89
2023/10/16 12:29:22;;;;;;;1.92;0.20;;;12.80;99.90;;;;;;4910585;29;20171;-89
2023/10/16 12:31:48;;;;;;;1.63;0.30;;;13.00;99.90;;;;;;4926367;29;20039;-90
2023/10/16 12:34:16;;;;;;;2.35;0.50;;;12.70;99.90;;;;;;4924597;29;20038;-91
2023/10/16 12:36:43;;;;;;;1.20;0.20;;;12.70;99.90;;;;;;4930045;29;20023;-90
2023/10/16 12:39:24;;;;;;;1.75;0.20;;;12.80;99.90;;;;;;4913502;29;20038;-91
2023/10/16 12:41:54;;;;;;;1.77;0.22;;;13.10;99.90;;;;;;4930094;29;20078;-91
2023/10/16 12:44:20;;;;;;;1.73;0.20;;;13.10;99.90;;;;;;4912209;29;20163;-90
2023/10/16 12:46:45;;;;;;;1.15;0.20;;;13.10;99.90;;;;;;4930441;29;20127;-90
2023/10/16 12:49:13;;;;;;;1.90;0.20;;;13.20;99.90;;;;;;4931161;29;20476;-90
2023/10/16 12:51:40;;;;;;;0.90;0.20;;;13.20;99.90;;;;;;4929198;29;20063;-91
2023/10/16 12:54:06;;;;;;;0.85;0.20;;;13.00;99.90;;;;;;4931469;29;20031;-91
2023/10/16 12:56:32;;;;;;;0.82;0.10;;;13.00;99.90;;;;;;4931756;29;20059;-91
2023/10/16 12:58:59;;;;;;;0.90;0.10;;;13.10;99.90;;;;;;4930944;29;20103;-91
2023/10/16 13:01:25;;;;;;;1.75;0.20;;;13.20;99.90;;;;;;4930917;29;20064;-91
2023/10/16 13:03:51;;;;;;;0.45;0.10;;;13.20;99.90;;;;;;4932143;29;20487;-91
2023/10/16 13:06:17;;;;;;;0.43;0.00;;;13.30;99.90;;;;;;4911660;29;20079;-90
2023/10/16 13:08:42;;;;;;;1.00;0.10;;;13.20;99.90;;;;;;4933999;29;20465;-91
2023/10/16 13:11:08;;;;;;;0.35;0.05;;;13.00;99.90;;;;;;4932976;29;20043;-90
2023/10/16 13:13:34;;;;;;;0.50;0.00;;;13.10;99.90;;;;;;4916323;29;20115;-89
2023/10/16 13:16:00;;;;;;;0.32;0.00;;;13.10;99.90;;;;;;4934378;29;20062;-91
2023/10/16 13:18:30;;;;;;;1.35;0.10;;;13.10;99.90;;;;;;4928689;29;20039;-90
2023/10/16 13:21:15;;;;;;;0.60;0.00;;;13.10;99.90;;;;;;4933363;29;20043;-91
2023/10/16 13:23:41;;;;;;;1.08;0.00;;;13.00;99.90;;;;;;4912678;29;20495;-90
2023/10/16 13:26:07;;;;;;;0.20;0.00;;;13.00;99.90;;;;;;4902043;29;20031;-91
2023/10/16 13:28:38;;;;;;;1.13;0.03;;;13.10;99.90;;;;;;4933068;29;20082;-89
2023/10/16 13:31:04;;;;;;;1.10;0.00;;;13.10;99.90;;;;;;4933795;29;20055;-91
2023/10/16 13:33:33;;;;;;;1.27;0.00;;;13.10;99.90;;;;;;4917938;29;20444;-90
2023/10/16 13:36:00;;;;;;;0.10;0.00;;;13.10;99.90;;;;;;4913599;29;20054;-87
2023/10/16 13:38:26;;;;;;;0.38;0.00;;;13.20;99.90;;;;;;4932565;29;20040;-89
2023/10/16 13:40:53;;;;;;;1.20;0.00;;;13.20;99.90;;;;;;4917971;29;20028;-92
2023/10/16 13:43:19;;;;;;;0.73;0.00;;;13.10;99.90;;;;;;4933850;29;20072;-90
2023/10/16 13:45:45;;;;;;;0.22;0.00;;;13.20;99.90;;;;;;4935399;29;20178;-88
2023/10/16 13:48:11;;;;;;;1.00;0.00;;;13.30;99.90;;;;;;4933668;29;20070;-90
2023/10/16 13:50:40;;;;;;;0.30;0.00;;;13.30;99.90;;;;;;4914645;29;20493;-90
2023/10/16 13:53:08;;;;;;;0.43;0.00;;;13.30;99.90;;;;;;4930599;29;20043;-91
2023/10/16 13:55:34;;;;;;;0.75;0.00;;;13.40;99.90;;;;;;4929518;29;20095;-87
2023/10/16 13:58:00;;;;;;;0.75;0.20;;;13.30;99.90;;;;;;4913107;29;20051;-91
2023/10/16 14:00:29;;;;;;;0.50;0.03;;;13.20;99.90;;;;;;4929491;29;20392;-91
2023/10/16 14:05:46;;;;;;;1.05;0.00;;;13.10;99.90;;;;;;4929764;29;20078;-91
2023/10/16 14:08:17;;;;;;;1.10;0.10;;;13.20;99.90;;;;;;4932103;29;20492;-91
2023/10/16 14:10:46;;;;;;;1.52;0.10;;;13.00;99.90;;;;;;4934194;29;20086;-90
2023/10/16 14:13:21;;;;;;;0.50;0.00;;;13.20;99.90;;;;;;4931953;29;20039;-90
2023/10/16 14:15:47;;;;;;;0.43;0.00;;;13.00;99.90;;;;;;4930965;29;20051;-91
2023/10/16 14:18:20;;;;;;;1.73;0.10;;;13.00;99.90;;;;;;4932929;29;20081;-91
2023/10/16 14:20:47;;;;;;;1.05;0.10;;;13.10;99.90;;;;;;4931715;29;20078;-91
2023/10/16 14:23:14;;;;;;;0.43;0.00;;;13.00;99.90;;;;;;4913658;29;20036;-90
2023/10/16 14:25:57;;;;;;;1.17;0.00;;;13.00;99.90;;;;;;4934666;29;20208;-90
2023/10/16 14:28:41;;;;;;;1.33;0.00;;;13.00;99.90;;;;;;4931240;29;20400;-91
2023/10/16 14:31:11;;;;;;;0.88;0.00;;;13.00;99.90;;;;;;4931578;29;20024;-90
2023/10/16 14:33:37;;;;;;;0.32;0.00;;;12.80;99.90;;;;;;4929565;29;20031;-90
2023/10/16 14:36:06;;;;;;;0.52;0.00;;;12.90;99.90;;;;;;4933587;29;20027;-90
2023/10/16 14:38:32;;;;;;;0.35;0.00;;;12.90;99.90;;;;;;4927052;29;20404;-90
2023/10/16 14:41:08;;;;;;;0.20;0.00;;;12.90;99.90;;;;;;4935879;29;20211;-89
2023/10/16 14:43:38;;;;;;;0.40;0.00;;;12.90;99.90;;;;;;4931042;29;20032;-90
2023/10/16 14:46:07;;;;;;;1.10;0.00;;;12.90;99.90;;;;;;4931760;29;20047;-88
2023/10/16 14:48:34;;;;;;;0.30;0.10;;;12.80;99.90;;;;;;4927713;29;20039;-90
2023/10/16 14:51:00;;;;;;;0.60;0.10;;;12.80;99.90;;;;;;4929405;29;20036;-91
2023/10/16 14:53:28;;;;;;;0.52;0.00;;;12.70;99.90;;;;;;4915326;29;20027;-89
2023/10/16 14:55:54;;;;;;;1.30;0.00;;;12.70;99.90;;;;;;4932261;29;20043;-90
2023/10/16 14:58:20;;;;;;;1.05;0.00;;;12.60;99.90;;;;;;4931834;29;20043;-91
2023/10/16 15:00:50;;;;;;;0.40;0.00;;;12.60;99.90;;;;;;4929350;29;20027;-91
2023/10/16 15:03:16;;;;;;;;;;;12.60;99.90;;;;;;4916474;29;20027;-88
2023/10/16 15:05:43;;;;;;;0.93;0.00;;;12.60;99.90;;;;;;4931399;29;20363;-92
2023/10/16 15:08:13;;;;;;;1.25;0.00;;;12.60;99.90;;;;;;4929170;29;20035;-91
2023/10/16 15:10:40;;;;;;;;;;;12.50;99.90;;;;;;4928250;29;20115;-91
2023/10/16 15:13:08;;;;;;;0.40;0.00;;;12.50;99.90;;;;;;4930466;29;20294;-87
2023/10/16 15:15:33;;;;;;;1.90;0.00;;;12.50;99.90;;;;;;4911561;29;20027;-91
2023/10/16 15:17:59;;;;;;;0.77;0.00;;;12.40;99.90;;;;;;4893974;29;20066;-92